sensor_id;sensor_type;location;lat;lon;timestamp;P1;durP1;ratioP1;P2;durP2;ratioP2
75400;SDS011;63974;47.538;18.972;2023-07-13T00:02:46;7.93;;;4.20;;
75400;SDS011;63974;47.538;18.972;2023-07-13T00:05:57;12.52;;;4.20;;
75400;SDS011;63974;47.538;18.972;2023-07-13T00:09:00;7.97;;;3.67;;
75400;SDS011;63974;47.538;18.972;2023-07-13T00:12:03;9.05;;;3.70;;
75400;SDS011;63974;47.538;18.972;2023-07-13T00:15:07;7.68;;;3.58;;
75400;SDS011;63974;47.538;18.972;2023-07-13T00:18:10;7.13;;;4.67;;
75400;SDS011;63974;47.538;18.972;2023-07-13T00:21:12;7.80;;;3.83;;
75400;SDS011;63974;47.538;18.972;2023-07-13T00:24:16;9.75;;;3.45;;
75400;SDS011;63974;47.538;18.972;2023-07-13T00:27:20;9.23;;;3.67;;
75400;SDS011;63974;47.538;18.972;2023-07-13T00:30:23;13.43;;;4.10;;
75400;SDS011;63974;47.538;18.972;2023-07-13T00:33:26;9.63;;;4.03;;
75400;SDS011;63974;47.538;18.972;2023-07-13T00:36:30;8.35;;;3.95;;
75400;SDS011;63974;47.538;18.972;2023-07-13T00:39:33;9.25;;;3.78;;
75400;SDS011;63974;47.538;18.972;2023-07-13T00:42:35;7.88;;;4.00;;
75400;SDS011;63974;47.538;18.972;2023-07-13T00:48:46;5.23;;;3.97;;
75400;SDS011;63974;47.538;18.972;2023-07-13T00:54:55;7.88;;;4.03;;
75400;SDS011;63974;47.538;18.972;2023-07-13T00:57:58;7.47;;;3.97;;
75400;SDS011;63974;47.538;18.972;2023-07-13T01:01:00;9.82;;;3.80;;
75400;SDS011;63974;47.538;18.972;2023-07-13T01:04:03;7.40;;;3.67;;
75400;SDS011;63974;47.538;18.972;2023-07-13T01:07:06;8.40;;;4.55;;
75400;SDS011;63974;47.538;18.972;2023-07-13T01:10:08;9.15;;;3.83;;
75400;SDS011;63974;47.538;18.972;2023-07-13T01:13:11;9.75;;;4.43;;
75400;SDS011;63974;47.538;18.972;2023-07-13T01:16:15;9.27;;;4.30;;
75400;SDS011;63974;47.538;18.972;2023-07-13T01:22:38;11.93;;;4.28;;
75400;SDS011;63974;47.538;18.972;2023-07-13T01:25:41;8.45;;;4.18;;
75400;SDS011;63974;47.538;18.972;2023-07-13T01:28:43;9.70;;;3.75;;
75400;SDS011;63974;47.538;18.972;2023-07-13T01:31:46;7.73;;;3.60;;
75400;SDS011;63974;47.538;18.972;2023-07-13T01:34:48;10.70;;;5.33;;
75400;SDS011;63974;47.538;18.972;2023-07-13T01:37:51;7.28;;;4.22;;
75400;SDS011;63974;47.538;18.972;2023-07-13T01:40:54;10.43;;;4.70;;
75400;SDS011;63974;47.538;18.972;2023-07-13T01:43:59;8.95;;;4.47;;
75400;SDS011;63974;47.538;18.972;2023-07-13T01:47:01;7.90;;;4.57;;
75400;SDS011;63974;47.538;18.972;2023-07-13T01:50:04;11.60;;;4.43;;
75400;SDS011;63974;47.538;18.972;2023-07-13T01:53:08;8.57;;;4.15;;
75400;SDS011;63974;47.538;18.972;2023-07-13T01:56:10;8.48;;;5.25;;
75400;SDS011;63974;47.538;18.972;2023-07-13T01:59:13;11.55;;;4.57;;
75400;SDS011;63974;47.538;18.972;2023-07-13T02:02:16;9.73;;;4.57;;
75400;SDS011;63974;47.538;18.972;2023-07-13T02:05:18;16.20;;;4.93;;
75400;SDS011;63974;47.538;18.972;2023-07-13T02:08:21;11.68;;;4.82;;
75400;SDS011;63974;47.538;18.972;2023-07-13T02:11:24;8.00;;;4.30;;
75400;SDS011;63974;47.538;18.972;2023-07-13T02:14:27;9.07;;;5.03;;
75400;SDS011;63974;47.538;18.972;2023-07-13T02:17:29;7.57;;;4.45;;
75400;SDS011;63974;47.538;18.972;2023-07-13T02:20:32;14.20;;;4.50;;
75400;SDS011;63974;47.538;18.972;2023-07-13T02:23:34;7.75;;;4.47;;
75400;SDS011;63974;47.538;18.972;2023-07-13T02:26:37;8.98;;;4.75;;
75400;SDS011;63974;47.538;18.972;2023-07-13T02:29:40;12.82;;;4.10;;
75400;SDS011;63974;47.538;18.972;2023-07-13T02:32:42;10.48;;;4.53;;
75400;SDS011;63974;47.538;18.972;2023-07-13T02:35:46;7.67;;;4.20;;
75400;SDS011;63974;47.538;18.972;2023-07-13T02:38:49;9.77;;;4.88;;
75400;SDS011;63974;47.538;18.972;2023-07-13T02:41:52;11.95;;;4.88;;
75400;SDS011;63974;47.538;18.972;2023-07-13T02:44:54;9.25;;;4.40;;
75400;SDS011;63974;47.538;18.972;2023-07-13T02:47:57;9.73;;;4.63;;
75400;SDS011;63974;47.538;18.972;2023-07-13T02:51:02;11.33;;;6.23;;
75400;SDS011;63974;47.538;18.972;2023-07-13T02:54:04;11.00;;;5.07;;
75400;SDS011;63974;47.538;18.972;2023-07-13T02:57:07;11.70;;;4.90;;
75400;SDS011;63974;47.538;18.972;2023-07-13T03:00:10;12.27;;;4.90;;
75400;SDS011;63974;47.538;18.972;2023-07-13T03:03:16;8.65;;;4.45;;
75400;SDS011;63974;47.538;18.972;2023-07-13T03:06:19;10.50;;;4.90;;
75400;SDS011;63974;47.538;18.972;2023-07-13T03:09:25;12.30;;;4.72;;
75400;SDS011;63974;47.538;18.972;2023-07-13T03:12:28;10.30;;;5.38;;
75400;SDS011;63974;47.538;18.972;2023-07-13T03:15:31;13.02;;;5.07;;
75400;SDS011;63974;47.538;18.972;2023-07-13T03:18:33;8.73;;;4.32;;
75400;SDS011;63974;47.538;18.972;2023-07-13T03:21:39;8.23;;;4.33;;
75400;SDS011;63974;47.538;18.972;2023-07-13T03:24:41;9.57;;;4.85;;
75400;SDS011;63974;47.538;18.972;2023-07-13T03:27:44;12.25;;;4.57;;
75400;SDS011;63974;47.538;18.972;2023-07-13T03:30:46;9.82;;;5.20;;
75400;SDS011;63974;47.538;18.972;2023-07-13T03:33:49;11.20;;;5.50;;
75400;SDS011;63974;47.538;18.972;2023-07-13T03:36:55;9.93;;;4.90;;
75400;SDS011;63974;47.538;18.972;2023-07-13T03:39:58;13.82;;;5.50;;
75400;SDS011;63974;47.538;18.972;2023-07-13T03:43:01;9.90;;;5.18;;
75400;SDS011;63974;47.538;18.972;2023-07-13T03:46:05;12.23;;;5.85;;
75400;SDS011;63974;47.538;18.972;2023-07-13T03:49:09;12.23;;;5.63;;
75400;SDS011;63974;47.538;18.972;2023-07-13T03:52:12;9.93;;;4.97;;
75400;SDS011;63974;47.538;18.972;2023-07-13T03:55:16;10.75;;;5.50;;
75400;SDS011;63974;47.538;18.972;2023-07-13T03:58:23;14.13;;;5.40;;
75400;SDS011;63974;47.538;18.972;2023-07-13T04:01:27;10.55;;;5.43;;
75400;SDS011;63974;47.538;18.972;2023-07-13T04:04:29;10.98;;;6.25;;
75400;SDS011;63974;47.538;18.972;2023-07-13T04:07:33;12.00;;;5.20;;
75400;SDS011;63974;47.538;18.972;2023-07-13T04:10:35;13.02;;;6.40;;
75400;SDS011;63974;47.538;18.972;2023-07-13T04:13:38;9.48;;;5.97;;
75400;SDS011;63974;47.538;18.972;2023-07-13T04:16:40;13.35;;;6.38;;
75400;SDS011;63974;47.538;18.972;2023-07-13T04:19:43;10.95;;;5.40;;
75400;SDS011;63974;47.538;18.972;2023-07-13T04:22:45;13.97;;;3.23;;
75400;SDS011;63974;47.538;18.972;2023-07-13T04:25:48;16.00;;;4.03;;
75400;SDS011;63974;47.538;18.972;2023-07-13T04:28:55;8.23;;;2.65;;
75400;SDS011;63974;47.538;18.972;2023-07-13T04:31:57;9.10;;;3.40;;
75400;SDS011;63974;47.538;18.972;2023-07-13T04:35:00;5.75;;;2.80;;
75400;SDS011;63974;47.538;18.972;2023-07-13T04:38:02;6.17;;;2.83;;
75400;SDS011;63974;47.538;18.972;2023-07-13T04:41:06;5.43;;;2.75;;
75400;SDS011;63974;47.538;18.972;2023-07-13T04:44:08;4.80;;;2.58;;
75400;SDS011;63974;47.538;18.972;2023-07-13T04:47:11;5.45;;;2.70;;
75400;SDS011;63974;47.538;18.972;2023-07-13T04:50:13;5.10;;;2.30;;
75400;SDS011;63974;47.538;18.972;2023-07-13T04:53:23;4.67;;;2.03;;
75400;SDS011;63974;47.538;18.972;2023-07-13T04:56:26;3.22;;;2.28;;
75400;SDS011;63974;47.538;18.972;2023-07-13T04:59:28;6.80;;;1.98;;
75400;SDS011;63974;47.538;18.972;2023-07-13T05:02:31;2.55;;;2.15;;
75400;SDS011;63974;47.538;18.972;2023-07-13T05:05:34;5.57;;;2.28;;
75400;SDS011;63974;47.538;18.972;2023-07-13T05:08:37;5.43;;;1.93;;
75400;SDS011;63974;47.538;18.972;2023-07-13T05:11:40;4.10;;;1.90;;
75400;SDS011;63974;47.538;18.972;2023-07-13T05:14:42;3.92;;;1.10;;
75400;SDS011;63974;47.538;18.972;2023-07-13T05:17:44;2.72;;;0.60;;
75400;SDS011;63974;47.538;18.972;2023-07-13T05:20:54;2.83;;;1.02;;
75400;SDS011;63974;47.538;18.972;2023-07-13T05:23:56;3.03;;;1.00;;
75400;SDS011;63974;47.538;18.972;2023-07-13T05:27:01;3.92;;;1.20;;
75400;SDS011;63974;47.538;18.972;2023-07-13T05:30:03;2.78;;;1.23;;
75400;SDS011;63974;47.538;18.972;2023-07-13T05:33:06;3.50;;;1.20;;
75400;SDS011;63974;47.538;18.972;2023-07-13T05:36:08;2.30;;;1.10;;
75400;SDS011;63974;47.538;18.972;2023-07-13T05:39:11;3.20;;;1.00;;
75400;SDS011;63974;47.538;18.972;2023-07-13T05:42:13;3.42;;;1.20;;
75400;SDS011;63974;47.538;18.972;2023-07-13T05:45:16;2.90;;;1.50;;
75400;SDS011;63974;47.538;18.972;2023-07-13T05:48:18;2.78;;;1.25;;
75400;SDS011;63974;47.538;18.972;2023-07-13T05:51:21;3.45;;;1.25;;
75400;SDS011;63974;47.538;18.972;2023-07-13T05:54:23;1.50;;;0.77;;
75400;SDS011;63974;47.538;18.972;2023-07-13T05:57:26;3.58;;;1.17;;
75400;SDS011;63974;47.538;18.972;2023-07-13T07:57:25;5.70;;;1.13;;
75400;SDS011;63974;47.538;18.972;2023-07-13T08:00:30;4.95;;;1.60;;
75400;SDS011;63974;47.538;18.972;2023-07-13T08:03:53;4.00;;;1.90;;
75400;SDS011;63974;47.538;18.972;2023-07-13T08:06:59;1.40;;;1.30;;
75400;SDS011;63974;47.538;18.972;2023-07-13T08:10:01;1.93;;;1.10;;
75400;SDS011;63974;47.538;18.972;2023-07-13T08:13:04;2.05;;;1.20;;
75400;SDS011;63974;47.538;18.972;2023-07-13T08:16:09;1.80;;;0.93;;
75400;SDS011;63974;47.538;18.972;2023-07-13T08:19:12;8.57;;;1.30;;
75400;SDS011;63974;47.538;18.972;2023-07-13T08:22:14;8.70;;;1.90;;
75400;SDS011;63974;47.538;18.972;2023-07-13T08:25:17;3.03;;;1.43;;
75400;SDS011;63974;47.538;18.972;2023-07-13T08:28:20;1.35;;;1.25;;
75400;SDS011;63974;47.538;18.972;2023-07-13T08:31:23;1.55;;;1.45;;
75400;SDS011;63974;47.538;18.972;2023-07-13T08:34:25;2.33;;;1.27;;
75400;SDS011;63974;47.538;18.972;2023-07-13T08:37:28;2.65;;;1.42;;
75400;SDS011;63974;47.538;18.972;2023-07-13T08:40:30;1.43;;;1.33;;
75400;SDS011;63974;47.538;18.972;2023-07-13T08:43:34;1.70;;;1.60;;
75400;SDS011;63974;47.538;18.972;2023-07-13T08:46:38;1.42;;;1.30;;
75400;SDS011;63974;47.538;18.972;2023-07-13T08:49:43;1.98;;;1.70;;
75400;SDS011;63974;47.538;18.972;2023-07-13T08:52:46;1.40;;;1.30;;
75400;SDS011;63974;47.538;18.972;2023-07-13T08:55:49;2.37;;;1.30;;
75400;SDS011;63974;47.538;18.972;2023-07-13T08:59:10;2.60;;;1.20;;
75400;SDS011;63974;47.538;18.972;2023-07-13T09:05:24;1.90;;;1.65;;
75400;SDS011;63974;47.538;18.972;2023-07-13T09:11:36;1.30;;;1.20;;
75400;SDS011;63974;47.538;18.972;2023-07-13T09:14:42;3.50;;;1.20;;
75400;SDS011;63974;47.538;18.972;2023-07-13T09:17:47;1.50;;;1.40;;
75400;SDS011;63974;47.538;18.972;2023-07-13T09:24:15;1.70;;;1.47;;
75400;SDS011;63974;47.538;18.972;2023-07-13T09:27:27;2.03;;;1.93;;
75400;SDS011;63974;47.538;18.972;2023-07-13T09:30:38;2.70;;;1.23;;
75400;SDS011;63974;47.538;18.972;2023-07-13T09:33:44;1.60;;;1.27;;
75400;SDS011;63974;47.538;18.972;2023-07-13T09:36:47;2.05;;;1.52;;
75400;SDS011;63974;47.538;18.972;2023-07-13T09:39:50;2.63;;;1.83;;
75400;SDS011;63974;47.538;18.972;2023-07-13T09:42:53;2.30;;;1.50;;
75400;SDS011;63974;47.538;18.972;2023-07-13T09:45:56;3.08;;;1.50;;
75400;SDS011;63974;47.538;18.972;2023-07-13T09:48:59;2.00;;;1.52;;
75400;SDS011;63974;47.538;18.972;2023-07-13T09:52:05;3.05;;;1.65;;
75400;SDS011;63974;47.538;18.972;2023-07-13T09:55:24;2.27;;;1.57;;
75400;SDS011;63974;47.538;18.972;2023-07-13T09:58:29;2.60;;;2.40;;
75400;SDS011;63974;47.538;18.972;2023-07-13T10:01:33;2.05;;;1.95;;
75400;SDS011;63974;47.538;18.972;2023-07-13T10:04:36;1.98;;;1.13;;
75400;SDS011;63974;47.538;18.972;2023-07-13T10:07:40;2.97;;;1.75;;
75400;SDS011;63974;47.538;18.972;2023-07-13T10:10:42;1.73;;;1.60;;
75400;SDS011;63974;47.538;18.972;2023-07-13T10:13:53;2.50;;;1.83;;
75400;SDS011;63974;47.538;18.972;2023-07-13T10:16:58;1.70;;;1.40;;
75400;SDS011;63974;47.538;18.972;2023-07-13T10:20:04;1.92;;;1.60;;
75400;SDS011;63974;47.538;18.972;2023-07-13T10:23:11;2.22;;;1.65;;
75400;SDS011;63974;47.538;18.972;2023-07-13T10:26:17;1.67;;;1.57;;
75400;SDS011;63974;47.538;18.972;2023-07-13T10:29:22;1.77;;;1.67;;
75400;SDS011;63974;47.538;18.972;2023-07-13T10:32:26;1.52;;;1.42;;
75400;SDS011;63974;47.538;18.972;2023-07-13T10:35:29;1.52;;;1.38;;
75400;SDS011;63974;47.538;18.972;2023-07-13T10:38:31;2.63;;;1.77;;
75400;SDS011;63974;47.538;18.972;2023-07-13T10:41:36;2.50;;;1.87;;
75400;SDS011;63974;47.538;18.972;2023-07-13T10:44:41;2.43;;;1.53;;
75400;SDS011;63974;47.538;18.972;2023-07-13T10:47:44;3.00;;;2.10;;
75400;SDS011;63974;47.538;18.972;2023-07-13T10:50:48;3.60;;;2.17;;
75400;SDS011;63974;47.538;18.972;2023-07-13T10:57:16;3.50;;;1.53;;
75400;SDS011;63974;47.538;18.972;2023-07-13T11:00:19;1.87;;;1.77;;
75400;SDS011;63974;47.538;18.972;2023-07-13T11:03:22;3.17;;;2.22;;
75400;SDS011;63974;47.538;18.972;2023-07-13T11:15:50;4.03;;;2.00;;
75400;SDS011;63974;47.538;18.972;2023-07-13T11:28:23;4.33;;;2.20;;
75400;SDS011;63974;47.538;18.972;2023-07-13T11:31:25;2.27;;;2.07;;
75400;SDS011;63974;47.538;18.972;2023-07-13T11:37:30;2.60;;;2.05;;
75400;SDS011;63974;47.538;18.972;2023-07-13T11:40:33;2.20;;;2.00;;
75400;SDS011;63974;47.538;18.972;2023-07-13T11:43:36;2.60;;;2.40;;
75400;SDS011;63974;47.538;18.972;2023-07-13T11:46:38;2.50;;;2.30;;
75400;SDS011;63974;47.538;18.972;2023-07-13T11:49:48;2.22;;;1.48;;
75400;SDS011;63974;47.538;18.972;2023-07-13T11:52:51;3.53;;;2.03;;
75400;SDS011;63974;47.538;18.972;2023-07-13T11:55:56;2.53;;;2.33;;
75400;SDS011;63974;47.538;18.972;2023-07-13T11:59:04;3.47;;;2.43;;
75400;SDS011;63974;47.538;18.972;2023-07-13T12:02:17;2.80;;;2.60;;
75400;SDS011;63974;47.538;18.972;2023-07-13T12:05:20;2.75;;;2.55;;
75400;SDS011;63974;47.538;18.972;2023-07-13T12:08:23;3.83;;;2.70;;
75400;SDS011;63974;47.538;18.972;2023-07-13T12:11:25;4.78;;;2.50;;
75400;SDS011;63974;47.538;18.972;2023-07-13T12:14:28;3.23;;;2.43;;
75400;SDS011;63974;47.538;18.972;2023-07-13T12:17:31;3.90;;;2.27;;
75400;SDS011;63974;47.538;18.972;2023-07-13T12:20:35;2.97;;;2.45;;
75400;SDS011;63974;47.538;18.972;2023-07-13T12:23:38;3.13;;;2.33;;
75400;SDS011;63974;47.538;18.972;2023-07-13T12:26:41;3.58;;;2.63;;
75400;SDS011;63974;47.538;18.972;2023-07-13T12:29:49;2.87;;;2.53;;
75400;SDS011;63974;47.538;18.972;2023-07-13T12:32:58;2.40;;;2.17;;
75400;SDS011;63974;47.538;18.972;2023-07-13T12:36:03;2.72;;;2.47;;
75400;SDS011;63974;47.538;18.972;2023-07-13T12:39:13;4.68;;;2.63;;
75400;SDS011;63974;47.538;18.972;2023-07-13T12:42:20;3.80;;;3.13;;
75400;SDS011;63974;47.538;18.972;2023-07-13T12:45:28;3.13;;;2.40;;
75400;SDS011;63974;47.538;18.972;2023-07-13T12:48:37;4.57;;;2.73;;
75400;SDS011;63974;47.538;18.972;2023-07-13T12:51:50;5.07;;;2.97;;
75400;SDS011;63974;47.538;18.972;2023-07-13T12:54:57;2.97;;;2.78;;
75400;SDS011;63974;47.538;18.972;2023-07-13T12:58:09;3.55;;;2.88;;
75400;SDS011;63974;47.538;18.972;2023-07-13T13:01:16;4.10;;;2.83;;
75400;SDS011;63974;47.538;18.972;2023-07-13T13:04:19;4.97;;;3.23;;
75400;SDS011;63974;47.538;18.972;2023-07-13T13:07:24;3.13;;;2.83;;
75400;SDS011;63974;47.538;18.972;2023-07-13T13:10:27;3.35;;;2.97;;
75400;SDS011;63974;47.538;18.972;2023-07-13T13:13:31;5.88;;;2.55;;
75400;SDS011;63974;47.538;18.972;2023-07-13T13:19:42;2.97;;;2.77;;
75400;SDS011;63974;47.538;18.972;2023-07-13T13:22:44;4.82;;;3.03;;
75400;SDS011;63974;47.538;18.972;2023-07-13T13:25:47;3.38;;;2.97;;
75400;SDS011;63974;47.538;18.972;2023-07-13T13:28:50;4.07;;;2.60;;
75400;SDS011;63974;47.538;18.972;2023-07-13T13:31:53;3.40;;;2.70;;
75400;SDS011;63974;47.538;18.972;2023-07-13T13:34:56;4.33;;;3.17;;
75400;SDS011;63974;47.538;18.972;2023-07-13T13:37:58;5.30;;;3.38;;
75400;SDS011;63974;47.538;18.972;2023-07-13T13:41:01;4.40;;;3.05;;
75400;SDS011;63974;47.538;18.972;2023-07-13T13:44:04;5.60;;;3.60;;
75400;SDS011;63974;47.538;18.972;2023-07-13T13:47:12;4.63;;;3.00;;
75400;SDS011;63974;47.538;18.972;2023-07-13T13:50:20;3.40;;;3.10;;
75400;SDS011;63974;47.538;18.972;2023-07-13T13:53:24;4.63;;;3.10;;
75400;SDS011;63974;47.538;18.972;2023-07-13T13:56:27;6.72;;;3.45;;
75400;SDS011;63974;47.538;18.972;2023-07-13T13:59:29;3.38;;;3.17;;
75400;SDS011;63974;47.538;18.972;2023-07-13T14:02:34;8.20;;;2.70;;
75400;SDS011;63974;47.538;18.972;2023-07-13T14:05:37;4.07;;;2.93;;
75400;SDS011;63974;47.538;18.972;2023-07-13T14:08:40;5.68;;;2.80;;
75400;SDS011;63974;47.538;18.972;2023-07-13T14:11:43;4.50;;;2.60;;
75400;SDS011;63974;47.538;18.972;2023-07-13T14:14:46;3.22;;;2.47;;
75400;SDS011;63974;47.538;18.972;2023-07-13T14:17:49;8.27;;;2.63;;
75400;SDS011;63974;47.538;18.972;2023-07-13T14:20:52;2.70;;;2.50;;
75400;SDS011;63974;47.538;18.972;2023-07-13T14:23:55;4.03;;;2.85;;
75400;SDS011;63974;47.538;18.972;2023-07-13T14:26:58;9.73;;;2.40;;
75400;SDS011;63974;47.538;18.972;2023-07-13T14:30:00;7.88;;;3.05;;
75400;SDS011;63974;47.538;18.972;2023-07-13T14:33:07;3.07;;;2.77;;
75400;SDS011;63974;47.538;18.972;2023-07-13T14:36:29;3.07;;;2.83;;
75400;SDS011;63974;47.538;18.972;2023-07-13T14:39:33;5.13;;;3.20;;
75400;SDS011;63974;47.538;18.972;2023-07-13T14:42:35;3.13;;;2.50;;
75400;SDS011;63974;47.538;18.972;2023-07-13T14:45:39;2.22;;;1.90;;
75400;SDS011;63974;47.538;18.972;2023-07-13T14:48:43;2.67;;;2.27;;
75400;SDS011;63974;47.538;18.972;2023-07-13T14:51:46;3.10;;;2.53;;
75400;SDS011;63974;47.538;18.972;2023-07-13T14:54:49;4.15;;;2.70;;
75400;SDS011;63974;47.538;18.972;2023-07-13T14:57:51;3.65;;;2.28;;
75400;SDS011;63974;47.538;18.972;2023-07-13T15:00:54;3.05;;;2.50;;
75400;SDS011;63974;47.538;18.972;2023-07-13T15:04:00;3.87;;;2.37;;
75400;SDS011;63974;47.538;18.972;2023-07-13T15:07:03;3.50;;;2.10;;
75400;SDS011;63974;47.538;18.972;2023-07-13T15:10:19;5.38;;;2.50;;
75400;SDS011;63974;47.538;18.972;2023-07-13T15:13:22;4.82;;;2.20;;
75400;SDS011;63974;47.538;18.972;2023-07-13T15:16:26;2.80;;;2.30;;
75400;SDS011;63974;47.538;18.972;2023-07-13T15:19:28;3.37;;;2.50;;
75400;SDS011;63974;47.538;18.972;2023-07-13T15:22:31;5.53;;;1.70;;
75400;SDS011;63974;47.538;18.972;2023-07-13T15:25:34;1.80;;;1.70;;
75400;SDS011;63974;47.538;18.972;2023-07-13T15:28:36;3.65;;;1.88;;
75400;SDS011;63974;47.538;18.972;2023-07-13T15:31:39;2.65;;;2.08;;
75400;SDS011;63974;47.538;18.972;2023-07-13T15:34:42;2.90;;;2.00;;
75400;SDS011;63974;47.538;18.972;2023-07-13T15:37:44;4.70;;;1.80;;
75400;SDS011;63974;47.538;18.972;2023-07-13T15:40:50;2.80;;;1.85;;
75400;SDS011;63974;47.538;18.972;2023-07-13T15:43:54;3.42;;;2.00;;
75400;SDS011;63974;47.538;18.972;2023-07-13T15:46:56;5.72;;;2.00;;
75400;SDS011;63974;47.538;18.972;2023-07-13T15:49:59;5.93;;;2.30;;
75400;SDS011;63974;47.538;18.972;2023-07-13T15:53:01;4.43;;;2.10;;
75400;SDS011;63974;47.538;18.972;2023-07-13T15:56:26;3.90;;;2.40;;
75400;SDS011;63974;47.538;18.972;2023-07-13T15:59:27;3.92;;;1.90;;
75400;SDS011;63974;47.538;18.972;2023-07-13T16:02:29;6.43;;;2.20;;
75400;SDS011;63974;47.538;18.972;2023-07-13T16:05:32;9.00;;;2.53;;
75400;SDS011;63974;47.538;18.972;2023-07-13T16:08:36;6.93;;;2.63;;
75400;SDS011;63974;47.538;18.972;2023-07-13T16:11:42;7.40;;;2.30;;
75400;SDS011;63974;47.538;18.972;2023-07-13T16:14:44;10.45;;;2.22;;
75400;SDS011;63974;47.538;18.972;2023-07-13T16:17:47;7.18;;;2.20;;
75400;SDS011;63974;47.538;18.972;2023-07-13T16:20:50;3.70;;;1.90;;
75400;SDS011;63974;47.538;18.972;2023-07-13T16:23:54;2.03;;;1.87;;
75400;SDS011;63974;47.538;18.972;2023-07-13T16:27:08;2.42;;;1.90;;
75400;SDS011;63974;47.538;18.972;2023-07-13T16:30:18;2.67;;;2.20;;
75400;SDS011;63974;47.538;18.972;2023-07-13T16:33:20;4.15;;;2.00;;
75400;SDS011;63974;47.538;18.972;2023-07-13T16:36:24;1.80;;;1.60;;
75400;SDS011;63974;47.538;18.972;2023-07-13T16:39:27;3.00;;;1.70;;
75400;SDS011;63974;47.538;18.972;2023-07-13T16:42:29;4.43;;;1.85;;
75400;SDS011;63974;47.538;18.972;2023-07-13T16:45:32;1.88;;;1.42;;
75400;SDS011;63974;47.538;18.972;2023-07-13T16:48:40;4.18;;;2.45;;
75400;SDS011;63974;47.538;18.972;2023-07-13T16:51:43;3.57;;;2.13;;
75400;SDS011;63974;47.538;18.972;2023-07-13T16:54:46;3.83;;;1.97;;
75400;SDS011;63974;47.538;18.972;2023-07-13T16:57:49;4.18;;;1.90;;
75400;SDS011;63974;47.538;18.972;2023-07-13T17:00:51;1.95;;;1.70;;
75400;SDS011;63974;47.538;18.972;2023-07-13T17:03:54;3.05;;;1.90;;
75400;SDS011;63974;47.538;18.972;2023-07-13T17:07:02;3.83;;;1.45;;
75400;SDS011;63974;47.538;18.972;2023-07-13T17:10:10;1.50;;;1.30;;
75400;SDS011;63974;47.538;18.972;2023-07-13T17:13:20;1.67;;;1.17;;
75400;SDS011;63974;47.538;18.972;2023-07-13T17:16:23;1.67;;;1.08;;
75400;SDS011;63974;47.538;18.972;2023-07-13T17:19:29;2.60;;;1.10;;
75400;SDS011;63974;47.538;18.972;2023-07-13T17:22:32;4.20;;;1.00;;
75400;SDS011;63974;47.538;18.972;2023-07-13T17:25:34;3.87;;;1.47;;
75400;SDS011;63974;47.538;18.972;2023-07-13T17:28:37;1.52;;;1.00;;
75400;SDS011;63974;47.538;18.972;2023-07-13T17:31:39;2.78;;;1.20;;
75400;SDS011;63974;47.538;18.972;2023-07-13T17:34:42;1.80;;;1.08;;
75400;SDS011;63974;47.538;18.972;2023-07-13T17:37:47;2.55;;;0.95;;
75400;SDS011;63974;47.538;18.972;2023-07-13T17:40:51;3.00;;;1.00;;
75400;SDS011;63974;47.538;18.972;2023-07-13T17:43:53;2.75;;;0.70;;
75400;SDS011;63974;47.538;18.972;2023-07-13T17:46:55;1.58;;;1.15;;
75400;SDS011;63974;47.538;18.972;2023-07-13T17:49:59;1.52;;;1.10;;
75400;SDS011;63974;47.538;18.972;2023-07-13T17:56:10;3.43;;;1.40;;
75400;SDS011;63974;47.538;18.972;2023-07-13T17:59:14;1.73;;;1.00;;
75400;SDS011;63974;47.538;18.972;2023-07-13T18:02:17;2.55;;;1.38;;
75400;SDS011;63974;47.538;18.972;2023-07-13T18:05:21;4.65;;;1.02;;
75400;SDS011;63974;47.538;18.972;2023-07-13T18:08:28;1.90;;;1.20;;
75400;SDS011;63974;47.538;18.972;2023-07-13T18:11:31;4.17;;;1.10;;
75400;SDS011;63974;47.538;18.972;2023-07-13T18:14:34;1.30;;;0.85;;
75400;SDS011;63974;47.538;18.972;2023-07-13T18:17:38;3.03;;;1.25;;
75400;SDS011;63974;47.538;18.972;2023-07-13T18:20:40;4.50;;;1.30;;
75400;SDS011;63974;47.538;18.972;2023-07-13T18:23:45;1.73;;;1.25;;
75400;SDS011;63974;47.538;18.972;2023-07-13T18:26:48;2.23;;;1.40;;
75400;SDS011;63974;47.538;18.972;2023-07-13T18:29:50;3.88;;;0.93;;
75400;SDS011;63974;47.538;18.972;2023-07-13T18:32:53;2.53;;;1.20;;
75400;SDS011;63974;47.538;18.972;2023-07-13T18:35:59;2.15;;;1.20;;
75400;SDS011;63974;47.538;18.972;2023-07-13T18:39:02;3.05;;;1.77;;
75400;SDS011;63974;47.538;18.972;2023-07-13T18:42:08;3.27;;;1.30;;
75400;SDS011;63974;47.538;18.972;2023-07-13T18:45:12;2.30;;;1.40;;
75400;SDS011;63974;47.538;18.972;2023-07-13T18:48:19;2.03;;;1.45;;
75400;SDS011;63974;47.538;18.972;2023-07-13T18:51:22;2.33;;;1.27;;
75400;SDS011;63974;47.538;18.972;2023-07-13T18:54:24;3.38;;;1.20;;
75400;SDS011;63974;47.538;18.972;2023-07-13T18:57:27;3.53;;;1.53;;
75400;SDS011;63974;47.538;18.972;2023-07-13T19:00:29;1.75;;;1.40;;
75400;SDS011;63974;47.538;18.972;2023-07-13T19:03:34;1.75;;;1.27;;
75400;SDS011;63974;47.538;18.972;2023-07-13T19:06:38;2.60;;;1.30;;
75400;SDS011;63974;47.538;18.972;2023-07-13T19:09:41;1.85;;;1.20;;
75400;SDS011;63974;47.538;18.972;2023-07-13T19:12:44;1.50;;;1.40;;
75400;SDS011;63974;47.538;18.972;2023-07-13T19:15:48;2.25;;;1.15;;
75400;SDS011;63974;47.538;18.972;2023-07-13T19:18:50;1.73;;;1.20;;
75400;SDS011;63974;47.538;18.972;2023-07-13T19:21:53;1.27;;;1.10;;
75400;SDS011;63974;47.538;18.972;2023-07-13T19:24:58;1.27;;;1.10;;
75400;SDS011;63974;47.538;18.972;2023-07-13T19:28:05;2.60;;;1.40;;
75400;SDS011;63974;47.538;18.972;2023-07-13T19:31:19;4.05;;;1.17;;
75400;SDS011;63974;47.538;18.972;2023-07-13T19:34:23;1.42;;;1.10;;
75400;SDS011;63974;47.538;18.972;2023-07-13T19:37:26;2.33;;;1.00;;
75400;SDS011;63974;47.538;18.972;2023-07-13T19:40:28;1.90;;;1.50;;
75400;SDS011;63974;47.538;18.972;2023-07-13T19:43:31;1.70;;;1.20;;
75400;SDS011;63974;47.538;18.972;2023-07-13T19:46:34;4.50;;;1.50;;
75400;SDS011;63974;47.538;18.972;2023-07-13T19:49:37;2.50;;;1.42;;
75400;SDS011;63974;47.538;18.972;2023-07-13T19:52:46;2.00;;;1.15;;
75400;SDS011;63974;47.538;18.972;2023-07-13T19:55:48;2.03;;;1.27;;
75400;SDS011;63974;47.538;18.972;2023-07-13T19:58:53;2.17;;;1.20;;
75400;SDS011;63974;47.538;18.972;2023-07-13T20:01:56;2.33;;;1.13;;
75400;SDS011;63974;47.538;18.972;2023-07-13T20:05:04;3.75;;;0.80;;
75400;SDS011;63974;47.538;18.972;2023-07-13T20:08:12;2.10;;;1.25;;
75400;SDS011;63974;47.538;18.972;2023-07-13T20:11:17;2.53;;;1.40;;
75400;SDS011;63974;47.538;18.972;2023-07-13T20:17:37;3.30;;;2.40;;
75400;SDS011;63974;47.538;18.972;2023-07-13T20:20:42;4.13;;;2.35;;
75400;SDS011;63974;47.538;18.972;2023-07-13T20:23:50;2.33;;;2.03;;
75400;SDS011;63974;47.538;18.972;2023-07-13T20:26:52;4.25;;;2.38;;
75400;SDS011;63974;47.538;18.972;2023-07-13T20:29:55;5.40;;;2.10;;
75400;SDS011;63974;47.538;18.972;2023-07-13T20:33:03;2.63;;;1.48;;
75400;SDS011;63974;47.538;18.972;2023-07-13T20:36:06;4.45;;;1.90;;
75400;SDS011;63974;47.538;18.972;2023-07-13T20:39:11;3.42;;;2.10;;
75400;SDS011;63974;47.538;18.972;2023-07-13T20:42:13;2.77;;;1.83;;
75400;SDS011;63974;47.538;18.972;2023-07-13T20:45:21;4.00;;;1.97;;
75400;SDS011;63974;47.538;18.972;2023-07-13T20:51:36;3.85;;;2.20;;
75400;SDS011;63974;47.538;18.972;2023-07-13T20:54:39;3.72;;;2.65;;
75400;SDS011;63974;47.538;18.972;2023-07-13T20:57:46;7.55;;;2.60;;
75400;SDS011;63974;47.538;18.972;2023-07-13T21:00:49;5.67;;;2.87;;
75400;SDS011;63974;47.538;18.972;2023-07-13T21:03:53;4.50;;;2.47;;
75400;SDS011;63974;47.538;18.972;2023-07-13T21:06:56;4.70;;;3.75;;